Time;durP1;ratioP1;P1;durP2;ratioP2;P2;SDS_P1;SDS_P2;PMS_P1;PMS_P2;Temp;Humidity;BMP_temperature;BMP_pressure;BME280_temperature;BME280_humidity;BME280_pressure;Samples;Min_cycle;Max_cycle;Signal;HPM_P1;HPM_P2
2022/08/30 00:03:20;;;;;;;9.77;2.10;;;;;;;23.72;53.12;102467.88;5016043;28;20033;-84
2022/08/30 00:05:47;;;;;;;9.40;2.92;;;;;;;23.64;53.24;102468.06;5014806;28;20392;-85
2022/08/30 00:08:13;;;;;;;9.68;2.90;;;;;;;23.60;53.50;102473.56;5014962;28;20037;-86
2022/08/30 00:10:41;;;;;;;11.63;3.05;;;;;;;23.79;53.11;102465.25;5015207;28;20025;-92
2022/08/30 00:13:10;;;;;;;11.57;2.15;;;;;;;23.71;52.96;102469.03;5014832;28;20030;-88
2022/08/30 00:15:37;;;;;;;;;;;;;;;23.69;53.29;102473.38;5015143;28;20029;-84
2022/08/30 00:18:04;;;;;;;16.58;2.55;;;;;;;23.53;53.74;102476.13;5014052;28;19918;-85
2022/08/30 00:20:32;;;;;;;9.30;2.08;;;;;;;23.38;54.77;102480.53;5014607;28;20612;-84
2022/08/30 00:22:59;;;;;;;10.45;2.28;;;;;;;23.68;53.58;102480.94;5014862;28;20030;-93
2022/08/30 00:25:26;;;;;;;10.35;2.65;;;;;;;23.76;53.64;102488.31;5032246;28;20045;-86
2022/08/30 00:27:54;;;;;;;14.98;3.25;;;;;;;23.75;53.81;102492.28;5031477;28;20404;-85
2022/08/30 00:30:21;;;;;;;11.93;2.92;;;;;;;23.76;53.81;102490.28;5015134;28;20113;-84
2022/08/30 00:32:48;;;;;;;12.07;3.05;;;;;;;23.76;53.48;102488.31;5030969;28;20026;-91
2022/08/30 00:35:19;;;;;;;11.18;2.85;;;;;;;23.84;53.70;102488.50;5031239;28;20033;-84
2022/08/30 00:37:46;;;;;;;13.13;3.13;;;;;;;23.78;53.69;102491.53;5031800;28;20040;-94
2022/08/30 00:40:19;;;;;;;10.27;2.33;;;;;;;23.62;54.18;102485.16;5016197;28;20077;-84
2022/08/30 00:42:46;;;;;;;12.25;2.67;;;;;;;23.88;53.29;102495.78;5033713;28;20385;-92
2022/08/30 00:45:18;;;;;;;8.23;2.63;;;;;;;23.80;53.95;102489.22;5014617;28;20054;-84
2022/08/30 00:47:45;;;;;;;13.27;2.28;;;;;;;23.82;53.55;102488.03;5030286;28;20087;-84
2022/08/30 00:50:14;;;;;;;12.23;3.05;;;;;;;23.83;53.54;102493.25;5013640;28;20604;-85
2022/08/30 00:52:44;;;;;;;10.43;2.15;;;;;;;23.88;53.60;102497.75;5014709;28;20141;-92
2022/08/30 00:55:13;;;;;;;15.00;3.22;;;;;;;23.86;53.44;102495.31;5031553;28;20030;-93
2022/08/30 00:57:42;;;;;;;11.73;3.28;;;;;;;23.84;53.35;102499.66;5031474;28;20507;-84
2022/08/30 01:00:09;;;;;;;9.18;2.90;;;;;;;23.86;53.25;102500.91;5015316;28;20037;-92
2022/08/30 01:02:36;;;;;;;10.57;2.38;;;;;;;23.88;52.85;102500.53;5015412;28;20496;-92
2022/08/30 01:05:05;;;;;;;10.65;2.25;;;;;;;23.75;53.77;102499.84;5015840;28;20087;-93
2022/08/30 01:07:33;;;;;;;13.18;2.75;;;;;;;23.76;53.51;102499.47;5015875;28;20022;-92
2022/08/30 01:10:01;;;;;;;11.25;2.92;;;;;;;23.84;53.52;102505.22;5015833;28;20073;-84
2022/08/30 01:12:29;;;;;;;11.35;2.50;;;;;;;23.69;53.95;102504.88;5015756;28;20025;-92
2022/08/30 01:14:57;;;;;;;10.23;2.30;;;;;;;23.73;53.98;102511.38;5030997;28;20049;-90
2022/08/30 01:17:26;;;;;;;12.20;2.97;;;;;;;23.66;53.94;102505.59;5029822;28;20026;-84
2022/08/30 01:20:00;;;;;;;11.48;2.63;;;;;;;23.53;54.36;102506.81;5031041;28;20108;-94
2022/08/30 01:22:45;;;;;;;8.95;2.70;;;;;;;23.50;54.28;102505.56;5014219;28;20026;-92
2022/08/30 01:25:14;;;;;;;13.05;3.15;;;;;;;23.57;54.41;102507.72;5014495;28;20033;-93
2022/08/30 01:27:51;;;;;;;12.77;2.80;;;;;;;23.65;53.98;102506.75;5013715;28;20028;-92
2022/08/30 01:30:17;;;;;;;9.48;2.92;;;;;;;23.66;53.78;102511.19;5015528;28;20084;-84
2022/08/30 01:32:47;;;;;;;12.82;3.63;;;;;;;23.64;54.16;102513.50;5014647;28;20014;-86
2022/08/30 01:35:17;;;;;;;9.77;2.63;;;;;;;23.35;54.80;102514.75;5013967;28;20548;-85
2022/08/30 01:37:44;;;;;;;13.07;2.70;;;;;;;23.58;54.00;102520.53;5013985;28;20029;-85
2022/08/30 01:40:13;;;;;;;11.27;2.80;;;;;;;23.56;54.04;102511.69;5030278;28;20112;-94
2022/08/30 01:42:40;;;;;;;12.57;2.83;;;;;;;23.55;54.35;102510.06;5015149;28;20025;-87
2022/08/30 01:45:08;;;;;;;10.07;3.00;;;;;;;23.41;54.56;102521.66;5029785;28;20054;-86
2022/08/30 01:47:36;;;;;;;13.93;3.42;;;;;;;23.46;54.68;102513.03;5013306;28;20033;-85
2022/08/30 01:50:05;;;;;;;12.15;2.22;;;;;;;23.48;54.34;102516.25;5014993;28;20100;-85
2022/08/30 01:52:33;;;;;;;15.15;2.22;;;;;;;23.44;54.75;102507.00;5014938;28;20026;-94
2022/08/30 01:54:59;;;;;;;21.02;4.57;;;;;;;23.37;54.85;102515.19;5013982;28;20105;-84
2022/08/30 01:57:27;;;;;;;10.80;2.53;;;;;;;23.42;54.85;102519.66;5030083;28;20113;-85
2022/08/30 01:59:54;;;;;;;14.82;2.80;;;;;;;23.52;54.52;102513.59;5030055;28;20040;-91
2022/08/30 02:02:26;;;;;;;13.18;2.72;;;;;;;23.45;54.81;102514.19;5029002;28;20029;-85
2022/08/30 02:04:53;;;;;;;10.77;3.35;;;;;;;23.49;54.60;102514.28;5030211;28;20117;-94
2022/08/30 02:07:21;;;;;;;10.73;2.85;;;;;;;23.67;54.27;102512.81;5030007;28;20033;-85
2022/08/30 02:09:53;;;;;;;9.93;2.80;;;;;;;23.77;53.48;102512.25;5030217;28;20040;-93
2022/08/30 02:12:19;;;;;;;10.63;3.15;;;;;;;23.67;53.64;102509.22;5014790;28;20113;-93
2022/08/30 02:14:47;;;;;;;11.45;2.53;;;;;;;23.63;53.83;102511.09;5013266;28;20026;-91
2022/08/30 02:17:15;;;;;;;12.57;3.10;;;;;;;23.59;53.90;102510.97;5013711;28;20033;-86
2022/08/30 02:19:41;;;;;;;11.50;3.03;;;;;;;23.63;53.55;102500.72;5012648;28;20049;-84
2022/08/30 02:22:09;;;;;;;14.13;3.17;;;;;;;23.68;53.61;102500.47;5029053;28;20551;-84
2022/08/30 02:24:35;;;;;;;8.23;2.20;;;;;;;23.69;53.48;102504.88;5029393;28;20121;-85
2022/08/30 02:27:03;;;;;;;14.15;3.58;;;;;;;23.57;53.80;102502.13;5029423;28;20057;-84
2022/08/30 02:29:30;;;;;;;9.07;2.95;;;;;;;23.67;53.51;102498.84;5013034;28;20030;-93
2022/08/30 02:31:58;;;;;;;11.45;2.75;;;;;;;23.70;53.28;102500.91;5028967;28;20431;-84
2022/08/30 02:34:24;;;;;;;12.07;2.78;;;;;;;23.82;52.90;102499.22;5029506;28;20032;-85
2022/08/30 02:36:50;;;;;;;11.70;2.88;;;;;;;23.75;53.12;102499.84;5014128;28;20468;-85
2022/08/30 02:39:17;;;;;;;10.05;3.08;;;;;;;23.67;53.13;102509.22;5029680;28;20125;-90
2022/08/30 02:41:42;;;;;;;9.10;3.08;;;;;;;23.80;53.00;102514.34;5012888;28;20124;-89
2022/08/30 02:44:10;;;;;;;10.73;2.65;;;;;;;23.77;52.98;102517.84;5013204;28;20026;-93
2022/08/30 02:46:37;;;;;;;13.13;2.40;;;;;;;23.80;52.96;102516.28;5028916;28;20025;-85
2022/08/30 02:49:04;;;;;;;8.00;3.08;;;;;;;23.58;53.73;102514.94;5013903;28;20541;-83
2022/08/30 02:51:30;;;;;;;14.68;3.50;;;;;;;23.56;53.68;102502.50;5013453;28;20034;-84
2022/08/30 02:53:55;;;;;;;9.63;3.15;;;;;;;23.68;53.03;102508.84;5013097;28;20036;-84
2022/08/30 02:56:22;;;;;;;15.93;3.20;;;;;;;23.74;52.98;102512.19;5028399;28;20626;-85
2022/08/30 02:58:48;;;;;;;13.48;3.15;;;;;;;23.63;53.38;102511.09;5029450;28;20128;-94
2022/08/30 03:01:17;;;;;;;11.50;2.85;;;;;;;23.60;53.37;102507.03;5029074;28;20043;-95
2022/08/30 03:03:45;;;;;;;11.45;2.95;;;;;;;23.62;53.47;102504.69;5012886;28;20057;-92
2022/08/30 03:06:13;;;;;;;12.00;3.13;;;;;;;23.60;53.58;102507.03;5013016;28;20041;-93
2022/08/30 03:08:39;;;;;;;13.18;3.25;;;;;;;23.68;53.47;102510.81;5013119;28;20037;-92
2022/08/30 03:11:06;;;;;;;9.98;2.72;;;;;;;23.83;52.90;102512.00;5029266;28;20052;-87
2022/08/30 03:13:32;;;;;;;12.00;2.42;;;;;;;23.90;52.34;102515.78;5016252;28;20026;-93
2022/08/30 03:15:58;;;;;;;11.43;2.80;;;;;;;23.94;52.38;102515.84;5018484;28;20029;-93
2022/08/30 03:18:28;;;;;;;8.27;2.30;;;;;;;24.01;52.25;102516.00;5033809;28;20026;-93
2022/08/30 03:20:54;;;;;;;13.27;3.17;;;;;;;24.02;51.95;102517.63;5017248;28;20484;-88
2022/08/30 03:23:22;;;;;;;8.10;2.75;;;;;;;23.94;52.29;102516.66;5043577;28;20033;-95
2022/08/30 03:25:48;;;;;;;11.98;3.17;;;;;;;24.03;52.12;102513.66;5025336;28;20032;-86
2022/08/30 03:28:15;;;;;;;15.43;3.05;;;;;;;23.97;51.97;102515.13;5030448;28;20026;-87
2022/08/30 03:30:40;;;;;;;12.18;2.85;;;;;;;24.00;52.56;102518.00;5027858;28;20089;-86
2022/08/30 03:33:10;;;;;;;12.10;2.80;;;;;;;23.99;52.73;102510.78;5034248;28;20049;-95
2022/08/30 03:35:37;;;;;;;13.48;3.88;;;;;;;23.95;52.52;102512.69;5029556;28;20546;-93
2022/08/30 03:38:05;;;;;;;9.57;2.30;;;;;;;23.96;52.65;102514.31;5016688;28;20133;-93
2022/08/30 03:40:31;;;;;;;8.70;2.55;;;;;;;23.96;52.42;102510.72;5017064;28;20025;-95
2022/08/30 03:42:56;;;;;;;11.15;2.92;;;;;;;23.98;52.70;102525.13;5028453;28;20037;-87
2022/08/30 03:45:23;;;;;;;14.25;3.40;;;;;;;23.95;52.59;102518.25;5051970;28;20140;-87
2022/08/30 03:47:50;;;;;;;11.60;2.88;;;;;;;23.93;52.56;102514.22;5026788;28;20066;-93
2022/08/30 03:50:17;;;;;;;9.30;2.80;;;;;;;23.85;52.66;102515.22;5023807;28;20030;-86
2022/08/30 03:52:44;;;;;;;7.55;2.30;;;;;;;23.70;53.46;102517.66;5029168;28;20030;-92
2022/08/30 03:55:12;;;;;;;12.02;3.05;;;;;;;23.75;53.33;102514.59;5034140;28;20069;-92
2022/08/30 03:57:39;;;;;;;9.05;2.35;;;;;;;23.69;53.37;102510.47;5033551;28;20029;-93
2022/08/30 04:00:06;;;;;;;9.57;2.78;;;;;;;23.55;53.70;102515.63;5025697;28;20021;-85
2022/08/30 04:02:32;;;;;;;10.65;3.60;;;;;;;23.48;54.10;102509.88;5029051;28;20029;-95
2022/08/30 04:04:58;;;;;;;16.33;3.53;;;;;;;23.67;53.55;102512.00;5022215;28;20018;-85
2022/08/30 04:07:25;;;;;;;18.20;3.00;;;;;;;23.65;53.34;102509.53;5026869;28;20033;-94
2022/08/30 04:09:51;;;;;;;10.10;2.58;;;;;;;23.73;53.03;102510.56;5035853;28;20507;-93
2022/08/30 04:12:18;;;;;;;8.02;1.80;;;;;;;23.57;53.52;102513.28;5035932;28;20679;-92
2022/08/30 04:14:44;;;;;;;10.85;2.80;;;;;;;23.56;53.51;102511.69;5025833;28;20022;-91
2022/08/30 04:17:10;;;;;;;9.63;2.45;;;;;;;23.47;53.88;102513.84;5022905;28;20032;-87
2022/08/30 04:19:36;;;;;;;7.68;2.97;;;;;;;23.48;53.57;102521.03;5034916;28;20045;-93
2022/08/30 04:22:02;;;;;;;7.28;3.08;;;;;;;23.41;54.12;102523.63;5018837;28;20022;-93
2022/08/30 04:24:28;;;;;;;8.93;2.40;;;;;;;23.43;53.64;102518.53;5015620;28;20026;-93
2022/08/30 04:26:54;;;;;;;10.70;3.20;;;;;;;23.53;53.48;102518.00;5016095;28;20113;-92
2022/08/30 04:29:20;;;;;;;5.60;2.67;;;;;;;23.47;53.38;102514.66;5031984;28;20029;-87
2022/08/30 04:31:46;;;;;;;11.32;2.85;;;;;;;23.45;53.58;102521.75;5034205;28;20039;-84
2022/08/30 04:34:14;;;;;;;11.65;3.92;;;;;;;23.33;53.86;102521.81;5051023;28;20088;-87
2022/08/30 04:36:40;;;;;;;10.07;3.45;;;;;;;23.48;53.36;102521.03;5050940;28;20026;-92
2022/08/30 04:39:07;;;;;;;10.27;2.50;;;;;;;23.25;53.86;102518.84;5050909;28;20033;-93
2022/08/30 04:41:39;;;;;;;8.70;2.47;;;;;;;23.22;54.14;102525.16;5034211;28;20059;-86
2022/08/30 04:44:06;;;;;;;13.32;3.08;;;;;;;23.47;53.16;102527.78;5050727;28;20034;-85
2022/08/30 04:46:36;;;;;;;8.93;2.25;;;;;;;23.47;52.91;102525.81;5049840;28;20049;-85
2022/08/30 04:49:04;;;;;;;18.20;3.45;;;;;;;23.35;53.51;102525.91;5050817;28;20462;-86
2022/08/30 04:51:29;;;;;;;6.60;2.65;;;;;;;23.35;53.14;102527.84;5034255;28;20075;-85
2022/08/30 04:53:55;;;;;;;5.10;2.38;;;;;;;23.26;53.59;102533.59;5033836;28;20029;-85
2022/08/30 04:56:23;;;;;;;13.77;2.40;;;;;;;23.43;53.06;102535.25;5034004;28;20030;-85
2022/08/30 04:58:51;;;;;;;10.70;3.08;;;;;;;23.15;53.58;102536.09;5034053;28;20039;-95
2022/08/30 05:01:20;;;;;;;6.93;2.78;;;;;;;23.10;53.81;102536.34;5049754;28;20029;-85
2022/08/30 05:03:51;;;;;;;6.88;2.85;;;;;;;22.96;54.33;102545.09;5035223;28;20025;-84
2022/08/30 05:06:17;;;;;;;8.27;2.42;;;;;;;23.01;54.21;102538.47;5050431;28;20124;-93
2022/08/30 05:08:43;;;;;;;6.03;2.35;;;;;;;23.23;53.55;102542.69;5050528;28;20032;-85
2022/08/30 05:11:09;;;;;;;8.52;2.17;;;;;;;23.15;53.44;102547.25;5050536;28;20021;-92
2022/08/30 05:13:36;;;;;;;8.43;2.60;;;;;;;22.97;53.92;102545.91;5035102;28;20415;-85
2022/08/30 05:16:04;;;;;;;9.40;2.70;;;;;;;22.97;53.94;102554.28;5033149;28;20369;-84
2022/08/30 05:18:29;;;;;;;9.32;2.58;;;;;;;23.00;53.93;102555.56;5050254;28;20495;-85
2022/08/30 05:21:11;;;;;;;13.32;2.95;;;;;;;22.96;54.42;102558.22;5033716;28;20053;-84
2022/08/30 05:23:38;;;;;;;6.78;2.30;;;;;;;23.05;54.48;102558.94;5033808;28;20115;-84
2022/08/30 05:26:08;;;;;;;11.55;3.10;;;;;;;23.03;54.35;102561.22;5050136;28;20052;-84
2022/08/30 05:28:34;;;;;;;9.60;2.10;;;;;;;23.02;54.23;102567.97;5049943;28;20021;-85
2022/08/30 05:31:00;;;;;;;6.53;2.10;;;;;;;22.91;54.32;102566.88;5049361;28;20104;-84
2022/08/30 05:33:26;;;;;;;6.43;2.17;;;;;;;22.96;53.39;102561.03;5033356;28;20034;-90
2022/08/30 05:35:52;;;;;;;9.43;3.13;;;;;;;22.92;53.49;102574.88;5032645;28;20512;-84
2022/08/30 05:38:17;;;;;;;7.18;2.35;;;;;;;23.02;53.01;102573.56;5049870;28;20037;-85
2022/08/30 05:40:43;;;;;;;10.15;3.05;;;;;;;23.02;52.82;102581.91;5034828;28;20060;-89
2022/08/30 05:43:10;;;;;;;9.27;2.20;;;;;;;23.06;52.32;102588.41;5033171;28;20113;-91
2022/08/30 05:45:36;;;;;;;10.00;2.78;;;;;;;23.04;52.01;102584.34;5032335;28;20056;-86
2022/08/30 05:48:03;;;;;;;9.77;2.25;;;;;;;23.09;51.63;102587.69;5034351;28;20036;-85
2022/08/30 05:50:29;;;;;;;10.55;2.05;;;;;;;23.12;51.53;102594.53;5049952;28;20022;-93
2022/08/30 05:52:54;;;;;;;6.88;2.45;;;;;;;22.97;51.86;102590.53;5049303;28;20037;-84
2022/08/30 05:55:20;;;;;;;5.88;1.88;;;;;;;23.04;51.45;102587.94;5033876;28;20037;-85
2022/08/30 05:57:46;;;;;;;7.28;2.00;;;;;;;23.08;51.42;102591.66;5033166;28;20408;-92
2022/08/30 06:00:16;;;;;;;9.20;2.17;;;;;;;23.03;51.50;102589.09;5049573;28;20065;-89
2022/08/30 06:02:42;;;;;;;;;;;;;;;23.09;51.27;102581.31;5049750;28;20076;-89
2022/08/30 06:05:09;;;;;;;11.10;2.50;;;;;;;23.17;50.90;102597.09;5033776;28;20463;-85
2022/08/30 06:07:34;;;;;;;10.40;2.45;;;;;;;23.05;51.54;102597.94;5049488;28;20033;-84
2022/08/30 06:10:00;;;;;;;12.98;2.38;;;;;;;23.16;51.15;102601.03;5033957;28;20036;-85
2022/08/30 06:12:26;;;;;;;10.57;1.95;;;;;;;23.15;51.58;102594.66;5032870;28;20384;-93
2022/08/30 06:14:52;;;;;;;13.98;2.67;;;;;;;23.11;51.63;102604.06;5033281;28;20056;-85
2022/08/30 06:17:18;;;;;;;9.10;2.40;;;;;;;23.22;51.23;102600.44;5033602;28;20037;-85
2022/08/30 06:19:43;;;;;;;12.40;3.20;;;;;;;23.45;50.47;102605.44;5033593;28;20029;-84
2022/08/30 06:22:09;;;;;;;7.88;2.78;;;;;;;23.42;50.84;102606.16;5033427;28;20125;-84
2022/08/30 06:24:35;;;;;;;8.23;3.22;;;;;;;23.40;50.76;102603.72;5033980;28;20038;-86
2022/08/30 06:27:01;;;;;;;8.55;2.30;;;;;;;23.44;50.89;102615.00;5017598;28;20040;-92
2022/08/30 06:29:26;;;;;;;8.07;3.95;;;;;;;23.39;50.85;102618.03;5013855;28;20032;-85
2022/08/30 06:31:52;;;;;;;10.52;2.30;;;;;;;23.51;50.54;102613.22;5012982;28;20400;-91
2022/08/30 06:34:17;;;;;;;6.80;2.53;;;;;;;23.43;50.54;102619.75;5013951;28;20145;-85
2022/08/30 06:36:43;;;;;;;6.35;2.20;;;;;;;23.54;50.34;102623.66;5012860;28;20049;-84
2022/08/30 06:39:09;;;;;;;9.02;2.55;;;;;;;23.59;50.14;102625.38;5013531;28;20438;-92
2022/08/30 06:41:37;;;;;;;6.15;2.63;;;;;;;23.57;50.16;102618.50;5014042;28;20033;-85
2022/08/30 06:44:05;;;;;;;8.93;2.55;;;;;;;23.72;49.85;102623.34;5019200;28;20037;-90
2022/08/30 06:46:34;;;;;;;8.50;2.28;;;;;;;23.68;49.81;102620.47;5046102;28;20074;-85
2022/08/30 06:49:00;;;;;;;6.07;2.55;;;;;;;23.70;49.82;102611.72;5011378;28;20032;-86
2022/08/30 06:51:37;;;;;;;7.32;2.80;;;;;;;23.62;49.68;102630.25;5014039;28;20176;-93
2022/08/30 06:54:07;;;;;;;6.63;2.20;;;;;;;23.65;49.65;102629.53;5012392;28;20117;-85
2022/08/30 06:56:33;;;;;;;;;;;;;;;23.66;49.16;102631.19;5013289;28;20026;-86
2022/08/30 06:58:59;;;;;;;9.35;2.30;;;;;;;23.75;48.99;102631.00;5011924;28;20422;-85
2022/08/30 07:01:27;;;;;;;9.23;3.15;;;;;;;23.86;48.57;102622.91;5012635;28;20097;-86
2022/08/30 07:03:54;;;;;;;7.65;2.75;;;;;;;23.91;48.48;102629.03;5012570;28;20561;-85
2022/08/30 07:06:21;;;;;;;15.10;3.33;;;;;;;23.98;48.53;102622.84;5013138;28;20117;-92
2022/08/30 07:08:49;;;;;;;8.10;2.35;;;;;;;23.98;48.81;102625.63;5014621;28;20045;-92
2022/08/30 07:11:23;;;;;;;8.55;3.25;;;;;;;24.07;48.45;102620.69;5013262;28;20420;-93
2022/08/30 07:13:49;;;;;;;10.68;3.08;;;;;;;24.08;48.41;102625.09;5013054;28;20041;-93
2022/08/30 07:16:14;;;;;;;11.50;2.35;;;;;;;24.15;48.51;102633.66;5013128;28;20030;-93
2022/08/30 07:18:49;;;;;;;8.70;2.70;;;;;;;24.17;48.65;102638.88;5012344;28;20037;-92
2022/08/30 07:21:18;;;;;;;10.90;2.78;;;;;;;24.22;48.07;102633.03;5013998;28;20112;-93
2022/08/30 07:23:45;;;;;;;5.63;2.15;;;;;;;24.09;48.20;102647.06;5013774;28;20119;-90
2022/08/30 07:26:14;;;;;;;11.95;3.92;;;;;;;24.14;48.34;102645.19;5013170;28;20030;-84
2022/08/30 07:28:42;;;;;;;8.55;2.38;;;;;;;24.23;48.34;102657.78;5011920;28;20029;-91
2022/08/30 07:31:09;;;;;;;10.70;2.67;;;;;;;24.21;48.04;102648.16;5011840;28;20050;-84
2022/08/30 07:33:35;;;;;;;10.82;2.13;;;;;;;24.26;47.83;102659.06;5029004;28;20435;-92
2022/08/30 07:36:00;;;;;;;5.00;2.00;;;;;;;24.28;47.50;102657.53;5013807;28;20026;-85
2022/08/30 07:38:27;;;;;;;7.85;2.42;;;;;;;24.02;47.47;102660.03;5011668;28;20034;-83
2022/08/30 07:40:53;;;;;;;7.47;2.30;;;;;;;24.16;46.95;102654.81;5012935;28;20092;-84
2022/08/30 07:43:19;;;;;;;5.47;2.25;;;;;;;24.16;46.99;102657.59;5011359;28;20030;-84
2022/08/30 07:45:44;;;;;;;6.43;2.50;;;;;;;24.25;46.91;102666.59;5027592;28;20473;-84
2022/08/30 07:48:11;;;;;;;16.45;2.72;;;;;;;24.28;46.68;102662.31;5011319;28;20419;-83
2022/08/30 07:50:43;;;;;;;6.50;1.95;;;;;;;24.51;45.50;102668.09;5011724;28;20374;-85
2022/08/30 07:53:09;;;;;;;4.72;1.77;;;;;;;24.68;45.62;102670.50;5011620;28;20033;-84
2022/08/30 07:55:34;;;;;;;6.50;2.35;;;;;;;24.71;45.37;102677.31;5011630;28;20034;-85
2022/08/30 07:58:00;;;;;;;3.58;1.30;;;;;;;24.74;45.19;102677.44;5011269;28;20041;-92
2022/08/30 08:00:28;;;;;;;4.80;1.45;;;;;;;24.61;44.96;102675.91;5016098;28;20026;-93
2022/08/30 08:02:54;;;;;;;4.70;1.23;;;;;;;24.75;44.43;102679.03;5035128;28;20419;-87
2022/08/30 08:05:20;;;;;;;8.65;1.90;;;;;;;24.75;44.58;102681.84;5028931;28;20507;-90
2022/08/30 08:07:46;;;;;;;8.25;2.00;;;;;;;24.73;44.33;102684.19;5030807;28;20175;-94
2022/08/30 08:10:12;;;;;;;8.10;2.00;;;;;;;24.68;44.33;102678.88;5033550;28;20071;-90
2022/08/30 08:12:39;;;;;;;41.28;4.60;;;;;;;24.56;44.68;102681.75;5035904;28;20119;-85
2022/08/30 08:15:06;;;;;;;3.60;1.38;;;;;;;24.57;44.40;102683.41;5036275;28;20145;-86
2022/08/30 08:17:32;;;;;;;2.75;1.27;;;;;;;24.70;44.38;102672.91;5024619;28;20036;-88
2022/08/30 08:19:58;;;;;;;3.90;1.30;;;;;;;24.92;43.97;102677.81;5025995;28;20033;-85
2022/08/30 08:22:24;;;;;;;9.32;2.13;;;;;;;24.86;43.69;102685.72;5029549;28;20404;-88
2022/08/30 08:24:50;;;;;;;4.22;1.45;;;;;;;24.98;43.45;102687.56;5014580;28;20052;-86
2022/08/30 08:27:17;;;;;;;2.92;1.10;;;;;;;25.01;43.28;102686.81;5028112;28;20039;-85
2022/08/30 08:29:43;;;;;;;4.75;1.85;;;;;;;24.94;43.13;102681.09;5024756;28;20034;-86
2022/08/30 08:32:11;;;;;;;7.60;1.70;;;;;;;25.08;42.85;102680.59;5015916;28;20017;-86
2022/08/30 08:34:38;;;;;;;2.70;1.35;;;;;;;24.99;43.12;102679.97;5037809;28;20049;-84
2022/08/30 08:37:04;;;;;;;3.78;1.50;;;;;;;25.09;43.20;102682.22;5005008;28;20060;-85
2022/08/30 08:39:33;;;;;;;5.53;1.83;;;;;;;25.15;43.11;102689.97;5009693;28;20767;-85
2022/08/30 08:42:26;;;;;;;7.07;2.05;;;;;;;25.29;42.59;102685.84;5012177;28;20048;-85
2022/08/30 08:45:12;;;;;;;5.80;1.88;;;;;;;25.26;42.45;102693.00;5046697;28;20049;-85
2022/08/30 08:48:23;;;;;;;5.35;1.30;;;;;;;25.39;42.50;102702.88;5008888;28;20032;-87
2022/08/30 08:53:38;;;;;;;5.32;1.40;;;;;;;25.38;41.82;102692.84;5015159;28;20032;-86
2022/08/30 08:56:13;;;;;;;3.45;1.27;;;;;;;25.67;41.35;102697.03;5013883;28;20022;-80
2022/08/30 08:58:53;;;;;;;3.38;1.67;;;;;;;25.84;40.66;102697.78;5013606;28;20107;-81
2022/08/30 09:01:30;;;;;;;9.98;1.88;;;;;;;25.77;40.82;102706.88;5022956;28;20030;-79
2022/08/30 09:04:16;;;;;;;3.00;1.35;;;;;;;25.99;40.41;102697.69;5033123;28;20029;-83
2022/08/30 09:06:49;;;;;;;3.22;1.30;;;;;;;26.12;40.58;102697.50;5022565;28;20404;-82
2022/08/30 09:09:31;;;;;;;3.05;1.65;;;;;;;25.98;40.39;102698.06;5024271;28;20021;-82
2022/08/30 09:12:01;;;;;;;5.30;1.40;;;;;;;26.21;40.51;102698.06;5020164;28;20484;-82
2022/08/30 09:14:46;;;;;;;6.15;1.85;;;;;;;26.20;40.30;102702.84;5020835;28;20498;-82
2022/08/30 09:17:18;;;;;;;3.95;1.20;;;;;;;26.32;40.62;102713.09;5016831;28;20120;-82
2022/08/30 09:20:01;;;;;;;3.08;1.33;;;;;;;26.36;40.30;102705.53;5020235;28;20112;-82
2022/08/30 09:22:48;;;;;;;3.30;1.10;;;;;;;26.23;40.43;102702.13;5023253;28;20040;-83
2022/08/30 09:25:33;;;;;;;5.22;1.48;;;;;;;26.49;39.85;102704.19;5037024;28;20026;-84
2022/08/30 09:28:20;;;;;;;6.95;1.65;;;;;;;26.70;40.28;102698.13;5011535;28;20048;-84
2022/08/30 09:31:07;;;;;;;4.50;1.20;;;;;;;26.66;39.65;102704.84;5009952;28;20018;-83
2022/08/30 09:33:35;;;;;;;4.45;1.40;;;;;;;26.66;40.09;102702.84;5013525;28;20549;-84
2022/08/30 09:36:25;;;;;;;7.32;1.80;;;;;;;26.65;39.37;102706.03;5007193;28;20767;-83
2022/08/30 09:39:02;;;;;;;;;;;;;;;26.75;39.28;102699.78;5006632;28;21101;-81
2022/08/30 09:41:37;;;;;;;5.38;1.38;;;;;;;26.94;39.43;102707.28;5002650;28;19921;-81
2022/08/30 09:44:05;;;;;;;9.05;1.80;;;;;;;27.05;38.84;102703.50;5006916;28;20029;-81
2022/08/30 09:46:30;;;;;;;7.65;2.45;;;;;;;26.81;38.97;102707.50;5039395;28;20056;-82
2022/08/30 09:48:56;;;;;;;5.93;2.45;;;;;;;26.91;38.87;102711.66;5004789;28;20400;-82
2022/08/30 09:51:34;;;;;;;8.32;2.05;;;;;;;26.72;38.63;102706.97;5003365;28;20075;-82
2022/08/30 09:54:33;;;;;;;5.57;1.63;;;;;;;26.85;38.41;102706.75;5005814;28;20026;-92
2022/08/30 09:57:31;;;;;;;5.88;1.70;;;;;;;27.13;38.36;102715.63;5040587;28;20030;-91
2022/08/30 10:00:21;;;;;;;6.93;1.80;;;;;;;27.05;38.27;102713.88;4976504;28;20041;-89
2022/08/30 10:02:52;;;;;;;5.03;1.45;;;;;;;27.18;38.20;102717.28;5006653;28;20033;-89
2022/08/30 10:05:33;;;;;;;2.28;1.25;;;;;;;27.02;38.24;102720.22;5006191;28;20069;-82
2022/08/30 10:08:10;;;;;;;11.32;3.35;;;;;;;26.99;38.67;102719.00;5023603;28;20040;-80
2022/08/30 10:11:22;;;;;;;6.28;1.48;;;;;;;26.99;38.41;102709.78;5032241;28;20029;-80
2022/08/30 10:14:04;;;;;;;5.53;1.65;;;;;;;27.10;38.62;102722.78;5021895;28;20073;-81
2022/08/30 10:16:48;;;;;;;5.00;1.52;;;;;;;27.13;38.61;102709.16;5016372;28;20380;-81
2022/08/30 10:19:31;;;;;;;4.65;1.05;;;;;;;27.10;38.34;102719.97;5024770;28;20124;-82
2022/08/30 10:22:08;;;;;;;4.20;1.20;;;;;;;27.01;38.55;102719.41;5031789;28;20108;-83
2022/08/30 10:24:42;;;;;;;16.30;2.92;;;;;;;27.15;38.13;102726.47;5032141;28;20092;-79
2022/08/30 10:27:15;;;;;;;3.25;1.20;;;;;;;27.22;37.60;102723.75;5027082;28;20021;-79
2022/08/30 10:29:53;;;;;;;5.68;1.17;;;;;;;27.22;37.67;102726.56;5011439;28;20061;-80
2022/08/30 10:32:36;;;;;;;7.55;1.33;;;;;;;27.22;37.46;102720.94;5018176;28;20103;-80
2022/08/30 10:35:15;;;;;;;4.07;1.30;;;;;;;27.49;37.25;102724.50;5031227;28;20120;-80
2022/08/30 10:38:00;;;;;;;3.72;1.30;;;;;;;27.52;37.23;102721.75;5031790;28;20384;-80
2022/08/30 10:43:46;;;;;;;3.38;1.38;;;;;;;27.58;37.82;102710.97;5032212;28;20031;-80
2022/08/30 10:46:28;;;;;;;2.95;1.13;;;;;;;27.53;37.81;102709.31;5031140;28;20068;-81
2022/08/30 10:48:55;;;;;;;4.40;1.33;;;;;;;27.60;37.87;102708.59;5032259;28;20391;-80
2022/08/30 10:51:35;;;;;;;4.72;1.20;;;;;;;27.57;37.40;102701.72;5030963;28;20387;-80
2022/08/30 10:54:14;;;;;;;3.85;1.38;;;;;;;27.46;37.51;102706.41;5013198;28;20029;-80
2022/08/30 10:56:41;;;;;;;4.53;1.40;;;;;;;27.75;37.55;102710.41;5013013;28;20366;-82
2022/08/30 10:59:07;;;;;;;8.13;1.60;;;;;;;27.57;37.96;102712.16;5012789;28;20036;-82
2022/08/30 11:01:51;;;;;;;4.75;1.48;;;;;;;27.75;37.21;102710.41;5012907;28;20101;-81
2022/08/30 11:04:34;;;;;;;3.58;1.05;;;;;;;27.69;37.27;102708.31;5012851;28;20492;-82
2022/08/30 11:07:30;;;;;;;4.80;0.93;;;;;;;27.70;37.51;102707.13;5013832;28;20585;-81
2022/08/30 11:10:02;;;;;;;4.55;1.45;;;;;;;27.73;37.63;102709.16;5018334;28;20041;-81
2022/08/30 11:12:36;;;;;;;2.53;1.10;;;;;;;27.68;37.77;102710.31;5030936;28;20057;-82
2022/08/30 11:15:18;;;;;;;2.45;1.15;;;;;;;27.73;37.28;102720.38;5022739;28;20057;-80
2022/08/30 11:18:03;;;;;;;3.00;0.85;;;;;;;27.51;37.59;102714.50;5011451;28;20057;-79
2022/08/30 11:20:43;;;;;;;3.53;1.27;;;;;;;27.77;37.03;102716.44;5012659;28;20408;-80
2022/08/30 11:23:11;;;;;;;;;;;;;;;27.95;36.65;102724.25;5011904;28;20030;-80
2022/08/30 11:25:52;;;;;;;2.20;0.73;;;;;;;28.08;36.27;102728.41;5012611;28;19913;-82
2022/08/30 11:28:36;;;;;;;5.20;1.48;;;;;;;28.11;36.28;102733.22;5031118;28;20057;-80
2022/08/30 11:31:29;;;;;;;2.13;1.00;;;;;;;28.05;36.54;102732.00;5045150;28;20071;-81
2022/08/30 11:33:58;;;;;;;5.25;1.52;;;;;;;28.00;36.67;102727.53;5005867;28;20040;-83
2022/08/30 11:36:37;;;;;;;2.63;1.13;;;;;;;28.08;36.59;102726.41;5016492;28;20100;-83
2022/08/30 11:39:07;;;;;;;2.67;1.20;;;;;;;28.01;36.69;102725.50;5033986;28;20128;-83
2022/08/30 11:41:46;;;;;;;3.92;1.08;;;;;;;28.11;36.39;102725.66;5035474;28;20029;-83
2022/08/30 11:44:20;;;;;;;3.20;0.80;;;;;;;27.49;37.06;102733.72;5024273;28;20502;-84
2022/08/30 11:47:18;;;;;;;1.83;0.90;;;;;;;27.73;36.53;102726.00;5025003;28;20494;-83